Time;durP1;ratioP1;P1;durP2;ratioP2;P2;SDS_P1;SDS_P2;PMS_P1;PMS_P2;Temp;Humidity;BMP_temperature;BMP_pressure;BME280_temperature;BME280_humidity;BME280_pressure;Samples;Min_cycle;Max_cycle;Signal;HPM_P1;HPM_P2
2022/12/27 00:01:50;;;;;;;;;;;;;;;9.08;53.28;99601.28;5033050;28;20351;-75
2022/12/27 00:04:15;;;;;;;;;;;;;;;9.07;53.20;99603.97;5015873;28;19939;-75
2022/12/27 00:06:40;;;;;;;;;;;;;;;9.04;53.29;99602.38;5016137;28;19971;-74
2022/12/27 00:09:06;;;;;;;;;;;;;;;9.02;53.10;99602.47;5016147;28;20003;-74
2022/12/27 00:11:31;;;;;;;;;;;;;;;9.00;53.21;99600.88;5032264;28;20292;-73
2022/12/27 00:14:00;;;;;;;;;;;;;;;9.00;53.32;99598.28;5032196;28;20406;-74
2022/12/27 00:16:25;;;;;;;;;;;;;;;8.97;53.39;99601.06;5016327;28;19917;-73
2022/12/27 00:18:51;;;;;;;;;;;;;;;8.94;53.53;99598.63;5015915;28;19917;-74
2022/12/27 00:21:16;;;;;;;;;;;;;;;8.94;53.53;99590.81;5011957;28;19999;-74
2022/12/27 00:23:43;;;;;;;;;;;;;;;8.91;53.63;99596.19;4996196;28;19924;-74
2022/12/27 00:26:10;;;;;;;;;;;;;;;8.88;53.46;99595.41;4996063;28;19924;-74
2022/12/27 00:28:35;;;;;;;;;;;;;;;8.91;53.46;99596.19;4996078;28;19918;-75
2022/12/27 00:31:01;;;;;;;;;;;;;;;8.90;53.50;99589.28;5022369;28;19917;-75
2022/12/27 00:33:26;;;;;;;;;;;;;;;8.89;53.69;99591.06;5012548;28;19988;-74
2022/12/27 00:35:52;;;;;;;;;;;;;;;8.88;53.46;99585.00;5012625;28;19983;-73
2022/12/27 00:38:17;;;;;;;;;;;;;;;8.88;53.61;99579.78;5012893;28;20434;-75
2022/12/27 00:40:42;;;;;;;;;;;;;;;8.88;53.43;99582.41;5012161;28;19918;-76
2022/12/27 00:43:08;;;;;;;;;;;;;;;8.88;53.49;99584.16;5029117;28;19957;-74
2022/12/27 00:45:33;;;;;;;;;;;;;;;8.88;53.61;99585.00;5012048;28;19918;-75
2022/12/27 00:47:58;;;;;;;;;;;;;;;8.86;53.32;99581.66;5028479;28;19921;-76
2022/12/27 00:50:24;;;;;;;;;;;;;;;8.82;53.90;99576.69;5012022;28;19917;-75
2022/12/27 00:52:49;;;;;;;;;;;;;;;8.81;53.50;99573.25;5012147;28;19918;-75
2022/12/27 00:55:14;;;;;;;;;;;;;;;8.80;53.77;99571.56;5011610;28;19940;-75
2022/12/27 00:57:40;;;;;;;;;;;;;;;8.77;53.60;99573.50;5012692;28;19917;-75
2022/12/27 01:00:05;;;;;;;;;;;;;;;8.76;53.78;99571.81;5012436;28;19924;-74
2022/12/27 01:02:30;;;;;;;;;;;;;;;8.72;53.82;99565.97;5028348;28;20292;-75
2022/12/27 01:04:56;;;;;;;;;;;;;;;8.70;53.91;99565.22;5028224;28;20012;-74
2022/12/27 01:07:21;;;;;;;;;;;;;;;8.69;53.96;99573.94;5028952;28;19921;-74
2022/12/27 01:09:47;;;;;;;;;;;;;;;8.67;54.01;99566.22;5010971;28;19927;-74
2022/12/27 01:12:12;;;;;;;;;;;;;;;8.65;53.95;99562.00;5028281;28;20461;-74
2022/12/27 01:14:37;;;;;;;;;;;;;;;8.62;54.11;99563.03;5011598;28;19993;-74
2022/12/27 01:17:03;;;;;;;;;;;;;;;8.61;54.17;99558.75;5011585;28;19925;-73
2022/12/27 01:19:28;;;;;;;;;;;;;;;8.60;54.15;99575.28;5011599;28;19924;-73
2022/12/27 01:21:55;;;;;;;;;;;;;;;8.60;54.08;99572.69;5028346;28;19924;-75
2022/12/27 01:24:20;;;;;;;;;;;;;;;8.59;54.12;99560.59;5005380;28;19922;-75
2022/12/27 01:26:45;;;;;;;;;;;;;;;8.58;54.20;99545.88;5020179;28;20379;-74
2022/12/27 01:29:11;;;;;;;;;;;;;;;8.57;53.92;99551.19;5003724;28;19917;-74
2022/12/27 01:31:36;;;;;;;;;;;;;;;8.56;54.21;99550.34;5002264;28;20016;-76
2022/12/27 01:34:02;;;;;;;;;;;;;;;8.56;54.33;99546.91;5020885;28;20407;-73
2022/12/27 01:36:27;;;;;;;;;;;;;;;8.56;54.37;99552.13;5003445;28;20280;-73
2022/12/27 01:38:53;;;;;;;;;;;;;;;8.57;54.09;99548.56;5020628;28;19943;-75
2022/12/27 01:44:26;;;;;;;;;;;;;;;8.55;54.52;99540.03;4975956;28;19917;-75
2022/12/27 01:46:51;;;;;;;;;;;;;;;8.55;54.37;99542.63;4988130;28;19918;-74
2022/12/27 01:49:17;;;;;;;;;;;;;;;8.53;54.36;99540.09;4972906;28;19929;-74
2022/12/27 01:51:42;;;;;;;;;;;;;;;8.54;54.18;99540.94;4972821;28;19922;-74
2022/12/27 01:54:07;;;;;;;;;;;;;;;8.53;54.70;99537.50;4989032;28;19918;-74
2022/12/27 01:56:33;;;;;;;;;;;;;;;8.51;54.49;99529.78;4972878;28;19921;-75
2022/12/27 01:59:02;;;;;;;;;;;;;;;8.51;54.62;99528.94;4972663;28;19925;-75
2022/12/27 02:01:29;;;;;;;;;;;;;;;8.49;54.34;99526.44;4989066;28;19922;-76
2022/12/27 02:03:56;;;;;;;;;;;;;;;8.51;54.64;99524.56;4972680;28;19918;-75
2022/12/27 02:06:21;;;;;;;;;;;;;;;8.47;54.50;99520.44;4984320;28;19945;-75
2022/12/27 02:08:57;;;;;;;;;;;;;;;8.48;54.53;99516.13;4971162;28;19958;-74
2022/12/27 02:11:49;;;;;;;;;;;;;;;8.47;54.58;99520.44;4958460;28;19918;-74
2022/12/27 02:14:09;;;;;;;;;;;;;;;8.47;54.54;99517.84;4961261;28;19957;-74
2022/12/27 02:16:34;;;;;;;;;;;;;;;8.47;54.89;99514.41;4974888;28;20463;-75
2022/12/27 02:18:59;;;;;;;;;;;;;;;8.47;54.72;99523.06;4958634;28;19918;-75
2022/12/27 02:21:29;;;;;;;;;;;;;;;8.46;54.74;99515.34;4983373;28;19917;-74
2022/12/27 02:24:13;;;;;;;;;;;;;;;8.45;54.56;99514.50;4998169;28;19917;-74
2022/12/27 02:26:46;;;;;;;;;;;;;;;8.45;54.88;99517.09;5015631;28;19917;-74
2022/12/27 02:29:11;;;;;;;;;;;;;;;8.44;54.97;99515.41;4998307;28;19960;-75
2022/12/27 02:31:37;;;;;;;;;;;;;;;8.44;54.89;99515.41;5015653;28;19980;-73
2022/12/27 02:34:03;;;;;;;;;;;;;;;8.45;54.98;99514.50;5014310;28;19921;-76
2022/12/27 02:36:29;;;;;;;;;;;;;;;8.45;54.90;99509.31;4998151;28;20474;-74
2022/12/27 02:38:55;;;;;;;;;;;;;;;8.44;54.90;99514.59;5014437;28;20079;-75
2022/12/27 02:55:33;;;;;;;;;;;;;;;8.41;54.90;99510.38;4916768;29;19927;-73
2022/12/27 02:58:01;;;;;;;;;;;;;;;8.41;55.12;99510.38;4916650;29;19919;-73
2022/12/27 03:03:25;;;;;;;;;;;;;;;8.41;55.45;99497.38;4930328;29;20075;-74
2022/12/27 03:06:38;;;;;;;;;;;;;;;8.40;55.24;99497.47;4931018;29;19923;-74
2022/12/27 03:08:41;;;;;;;;;;;;;;;8.38;54.98;99491.47;4916626;29;19958;-75
2022/12/27 03:16:40;;;;;;;;;;;;;;;8.36;55.27;99488.13;4929803;29;20417;-74
2022/12/27 03:19:12;;;;;;;;;;;;;;;8.34;55.53;99488.22;4931366;29;20029;-74
2022/12/27 03:27:16;;;;;;;;;;;;;;;8.30;55.12;99487.56;5033702;28;19971;-73
2022/12/27 03:35:12;;;;;;;;;;;;;;;8.24;55.35;99492.22;5039277;28;20054;-74
2022/12/27 03:43:40;;;;;;;;;;;;;;;8.23;55.28;99482.75;4973475;28;19925;-74
2022/12/27 03:48:58;;;;;;;;;;;;;;;8.22;55.49;99486.28;4973180;28;19975;-77
2022/12/27 03:51:23;;;;;;;;;;;;;;;8.21;55.14;99482.03;4973105;28;19918;-78
2022/12/27 03:53:49;;;;;;;;;;;;;;;8.20;55.14;99483.75;4956438;28;20312;-76
2022/12/27 03:56:15;;;;;;;;;;;;;;;8.18;55.05;99482.19;4973354;28;19918;-75
2022/12/27 03:58:40;;;;;;;;;;;;;;;8.15;55.32;99484.00;4956736;28;20316;-75
2022/12/27 04:01:05;;;;;;;;;;;;;;;8.18;55.36;99492.59;4956447;28;20464;-75
2022/12/27 04:03:31;;;;;;;;;;;;;;;8.18;55.45;99484.78;4972886;28;20000;-75
2022/12/27 04:05:56;;;;;;;;;;;;;;;8.15;55.27;99480.56;4972913;28;19922;-75
2022/12/27 04:35:41;;;;;;;;;;;;;;;8.00;55.07;99490.06;5037947;28;19924;-74
2022/12/27 04:38:06;;;;;;;;;;;;;;;7.98;55.67;99486.69;5053434;28;19921;-74
2022/12/27 04:56:59;;;;;;;;;;;;;;;7.97;55.39;99503.22;5037731;28;20374;-73
2022/12/27 05:02:09;;;;;;;;;;;;;;;7.94;55.68;99505.97;5037545;28;19975;-76
2022/12/27 05:04:34;;;;;;;;;;;;;;;7.94;55.76;99512.00;5052656;28;19921;-76
2022/12/27 05:13:58;;;;;;;;;;;;;;;7.94;55.31;99511.19;5020362;28;19979;-75
2022/12/27 05:15:12;;;;;;;;;;;;;;;7.87;55.82;99515.00;5017619;28;19925;-74
2022/12/27 05:17:38;;;;;;;;;;;;;;;7.84;55.42;99508.19;4998766;28;19917;-74
2022/12/27 05:20:03;;;;;;;;;;;;;;;7.83;55.63;99511.75;4998373;28;20350;-74
2022/12/27 05:27:56;;;;;;;;;;;;;;;7.81;55.54;99499.72;5017532;28;19928;-75
2022/12/27 05:30:22;;;;;;;;;;;;;;;7.79;55.50;99494.63;4998363;28;19917;-73
2022/12/27 05:32:47;;;;;;;;;;;;;;;7.78;55.49;99495.56;4998152;28;19925;-75
2022/12/27 05:35:12;;;;;;;;;;;;;;;7.75;55.13;99496.53;4998400;28;19924;-76
2022/12/27 05:37:38;;;;;;;;;;;;;;;7.74;55.59;99497.47;5014775;28;20296;-73
2022/12/27 05:40:03;;;;;;;;;;;;;;;7.74;55.07;99494.03;4998823;28;19917;-77
2022/12/27 05:42:28;;;;;;;;;;;;;;;7.73;55.43;99493.19;5017608;28;19943;-74
2022/12/27 05:44:54;;;;;;;;;;;;;;;7.77;54.95;99506.88;5019486;28;19921;-74
2022/12/27 05:47:19;;;;;;;;;;;;;;;7.79;54.99;99502.41;5022242;28;19917;-75
2022/12/27 05:49:44;;;;;;;;;;;;;;;7.81;54.85;99484.13;5038442;28;19917;-75
2022/12/27 05:52:10;;;;;;;;;;;;;;;7.83;54.54;99500.47;5013437;28;19925;-75
2022/12/27 05:54:35;;;;;;;;;;;;;;;7.87;54.38;99499.41;5018192;28;19918;-74
2022/12/27 05:57:00;;;;;;;;;;;;;;;7.93;54.07;99497.31;5018525;28;20004;-74
2022/12/27 05:59:26;;;;;;;;;;;;;;;8.04;54.00;99495.94;5008188;28;19963;-74
2022/12/27 06:01:51;;;;;;;;;;;;;;;8.10;54.10;99498.19;5009702;28;19957;-75
2022/12/27 06:04:16;;;;;;;;;;;;;;;8.16;54.08;99508.28;5010048;28;19924;-79
2022/12/27 06:06:42;;;;;;;;;;;;;;;8.29;53.88;99508.44;5002499;28;19917;-75
2022/12/27 06:09:07;;;;;;;;;;;;;;;8.46;53.27;99503.19;5038119;28;19917;-75
2022/12/27 06:11:32;;;;;;;;;;;;;;;8.79;52.35;99507.44;5021683;28;19924;-79
2022/12/27 06:13:57;;;;;;;;;;;;;;;9.32;51.85;99507.03;5021211;28;20039;-76
2022/12/27 06:16:23;;;;;;;;;;;;;;;9.98;50.41;99500.44;5055152;28;19917;-74
2022/12/27 06:18:48;;;;;;;;;;;;;;;10.79;50.99;99514.56;5020518;28;19928;-81
2022/12/27 06:21:15;;;;;;;;;;;;;;;11.59;48.82;99507.47;5021588;28;19939;-74
2022/12/27 06:23:40;;;;;;;;;;;;;;;12.58;51.17;99505.84;5024825;28;19971;-74
2022/12/27 06:26:08;;;;;;;;;;;;;;;13.64;59.07;99505.00;5025295;28;19916;-80
2022/12/27 06:28:34;;;;;;;;;;;;;;;13.74;60.27;99505.97;5022402;28;19971;-75
2022/12/27 06:30:59;;;;;;;;;;;;;;;14.25;52.87;99496.75;5023125;28;19917;-80
2022/12/27 06:33:25;;;;;;;;;;;;;;;15.51;54.17;99500.56;5044335;28;20018;-78
2022/12/27 06:35:50;;;;;;;;;;;;;;;16.07;45.22;99494.88;5022984;28;20055;-76
2022/12/27 06:38:15;;;;;;;;;;;;;;;16.55;44.54;99492.50;5020725;28;19929;-76
2022/12/27 06:40:41;;;;;;;;;;;;;;;16.64;41.95;99499.59;5023173;28;19921;-75
2022/12/27 06:43:06;;;;;;;;;;;;;;;16.80;40.18;99496.41;5009984;28;19921;-73
2022/12/27 06:45:31;;;;;;;;;;;;;;;16.83;40.18;99493.50;5009778;28;20380;-72
2022/12/27 06:47:57;;;;;;;;;;;;;;;16.28;40.70;99496.59;5024731;28;20457;-72
2022/12/27 06:50:22;;;;;;;;;;;;;;;16.01;40.72;99498.06;5026964;28;20383;-73
2022/12/27 06:52:47;;;;;;;;;;;;;;;16.28;40.45;99496.59;5016075;28;19948;-73
2022/12/27 06:55:13;;;;;;;;;;;;;;;16.78;42.81;99493.91;5020593;28;19928;-73
2022/12/27 06:57:38;;;;;;;;;;;;;;;17.07;39.83;99492.28;5017433;28;19940;-78
2022/12/27 07:00:04;;;;;;;;;;;;;;;16.94;39.27;99490.75;5003052;28;20304;-73
2022/12/27 07:02:29;;;;;;;;;;;;;;;16.35;40.18;99492.47;5024874;28;20376;-77
2022/12/27 07:04:54;;;;;;;;;;;;;;;15.96;40.11;99471.28;5006641;28;19918;-80
2022/12/27 07:07:20;;;;;;;;;;;;;;;15.84;57.83;99483.72;5006067;28;19933;-85
2022/12/27 07:09:45;;;;;;;;;;;;;;;15.90;55.99;99496.34;5017931;28;19917;-82
2022/12/27 07:12:11;;;;;;;;;;;;;;;15.73;53.08;99479.38;5034912;28;19917;-84
2022/12/27 07:14:36;;;;;;;;;;;;;;;15.46;47.14;99482.53;5017355;28;19924;-75
2022/12/27 07:17:01;;;;;;;;;;;;;;;15.41;50.82;99491.78;5000586;28;19948;-78
2022/12/27 07:19:27;;;;;;;;;;;;;;;15.12;47.14;99480.13;5008250;28;19927;-79
2022/12/27 07:21:52;;;;;;;;;;;;;;;14.82;45.19;99478.25;5016141;28;19963;-78
2022/12/27 07:24:17;;;;;;;;;;;;;;;14.73;53.57;99479.81;5032549;28;20361;-81
2022/12/27 07:26:44;;;;;;;;;;;;;;;14.55;45.94;99483.91;5035228;28;19925;-76
2022/12/27 07:29:09;;;;;;;;;;;;;;;14.64;46.39;99489.31;5019027;28;19924;-75
2022/12/27 07:31:34;;;;;;;;;;;;;;;15.59;55.82;99495.47;5029963;28;19925;-75
2022/12/27 07:34:00;;;;;;;;;;;;;;;16.11;58.58;99484.91;5019001;28;19927;-75
2022/12/27 07:36:27;;;;;;;;;;;;;;;15.82;50.59;99482.19;5034585;28;20015;-75
2022/12/27 07:38:52;;;;;;;;;;;;;;;15.83;46.16;99481.22;5018456;28;19916;-75
2022/12/27 07:41:18;;;;;;;;;;;;;;;15.96;45.06;99486.28;5035675;28;19923;-76
2022/12/27 07:43:43;;;;;;;;;;;;;;;16.44;44.11;99481.09;5035665;28;19969;-78
2022/12/27 07:46:16;;;;;;;;;;;;;;;16.62;43.30;99485.72;5053000;28;20598;-78
2022/12/27 07:48:41;;;;;;;;;;;;;;;17.43;41.43;99495.13;5019181;28;20513;-79
2022/12/27 07:51:06;;;;;;;;;;;;;;;17.96;38.97;99489.25;5053418;28;20019;-82
2022/12/27 07:53:33;;;;;;;;;;;;;;;18.60;49.22;99491.97;5035385;28;20410;-76
2022/12/27 07:55:59;;;;;;;;;;;;;;;19.05;42.50;99491.06;5019354;28;19943;-77
2022/12/27 07:58:24;;;;;;;;;;;;;;;19.59;46.63;99492.75;5018085;28;19924;-89
2022/12/27 08:00:50;;;;;;;;;;;;;;;20.11;44.29;99505.13;5018336;28;19927;-79
2022/12/27 08:03:15;;;;;;;;;;;;;;;20.47;40.10;99502.25;5053238;28;20353;-77
2022/12/27 08:05:45;;;;;;;;;;;;;;;20.59;42.87;99496.47;5035437;28;19976;-79
2022/12/27 08:08:11;;;;;;;;;;;;;;;20.97;42.23;99493.41;5017743;28;19917;-78
2022/12/27 08:10:36;;;;;;;;;;;;;;;21.37;40.90;99493.53;5015293;28;19921;-84
2022/12/27 08:13:01;;;;;;;;;;;;;;;21.67;39.53;99487.50;5022165;28;19976;-80
2022/12/27 08:15:27;;;;;;;;;;;;;;;21.95;37.44;99492.41;5020260;28;19912;-78
2022/12/27 08:17:52;;;;;;;;;;;;;;;22.12;33.02;99479.84;5033894;28;19916;-80
2022/12/27 08:20:17;;;;;;;;;;;;;;;22.26;30.00;99478.28;5018765;28;19920;-83
2022/12/27 08:22:43;;;;;;;;;;;;;;;21.81;29.10;99475.34;5017502;28;19986;-80
2022/12/27 08:25:08;;;;;;;;;;;;;;;21.98;28.26;99481.44;5018138;28;20303;-76
2022/12/27 08:27:33;;;;;;;;;;;;;;;21.54;28.02;99476.59;5018023;28;19963;-77
2022/12/27 08:29:59;;;;;;;;;;;;;;;21.73;27.81;99485.16;5017728;28;19920;-75
2022/12/27 08:32:24;;;;;;;;;;;;;;;22.01;27.42;99467.81;5034378;28;19931;-74
2022/12/27 08:34:49;;;;;;;;;;;;;;;22.27;27.28;99479.97;5017916;28;20387;-74
2022/12/27 08:37:15;;;;;;;;;;;;;;;22.54;26.71;99470.69;5034970;28;19916;-73
2022/12/27 08:39:41;;;;;;;;;;;;;;;22.86;27.96;99467.94;5032813;28;19921;-76
2022/12/27 08:42:08;;;;;;;;;;;;;;;23.21;30.16;99465.69;5030818;28;20682;-77
2022/12/27 08:44:33;;;;;;;;;;;;;;;23.52;28.52;99467.38;5016412;28;19928;-71
2022/12/27 08:46:59;;;;;;;;;;;;;;;23.79;26.38;99463.22;5051922;28;19916;-73
2022/12/27 08:49:25;;;;;;;;;;;;;;;24.08;25.51;99453.56;5017095;28;19960;-74
2022/12/27 08:51:50;;;;;;;;;;;;;;;24.33;25.07;99452.19;5034471;28;19917;-72
2022/12/27 08:54:15;;;;;;;;;;;;;;;23.77;25.12;99450.09;5017620;28;19917;-74
2022/12/27 08:56:41;;;;;;;;;;;;;;;24.00;26.92;99447.34;5034280;28;19967;-75
2022/12/27 08:59:06;;;;;;;;;;;;;;;23.26;29.73;99442.84;5032645;28;19924;-75
2022/12/27 09:01:31;;;;;;;;;;;;;;;22.83;36.09;99436.38;5023648;28;19920;-76
2022/12/27 09:03:57;;;;;;;;;;;;;;;22.32;39.26;99444.91;5017784;28;19921;-73
2022/12/27 09:06:22;;;;;;;;;;;;;;;21.94;36.71;99450.06;5017373;28;20019;-74
2022/12/27 09:08:48;;;;;;;;;;;;;;;21.53;36.65;99448.38;5013908;28;19967;-74
2022/12/27 09:11:19;;;;;;;;;;;;;;;21.16;36.35;99444.44;4997574;28;20015;-79
2022/12/27 09:13:45;;;;;;;;;;;;;;;20.90;33.04;99434.81;5004961;28;20373;-73
2022/12/27 09:16:11;;;;;;;;;;;;;;;21.50;31.52;99430.13;5023493;28;19974;-74
2022/12/27 09:18:37;;;;;;;;;;;;;;;21.94;31.63;99426.13;5022989;28;19918;-73
2022/12/27 09:21:06;;;;;;;;;;;;;;;22.23;35.06;99428.13;5004415;28;19923;-73
2022/12/27 09:23:31;;;;;;;;;;;;;;;22.66;30.53;99427.69;5006815;28;19948;-74
2022/12/27 09:25:57;;;;;;;;;;;;;;;23.00;28.73;99416.56;5040581;28;19964;-73
2022/12/27 09:28:22;;;;;;;;;;;;;;;23.19;26.94;99409.94;5022121;28;19925;-76
2022/12/27 09:30:48;;;;;;;;;;;;;;;23.38;26.37;99413.06;5008024;28;19950;-78
